createdAt,value
2022-09-14T00:02:02.201Z,78.11
2022-09-14T00:04:32.283Z,78.15
2022-09-14T00:07:02.245Z,78.42
2022-09-14T00:09:32.554Z,78.26
2022-09-14T00:12:01.994Z,78.52
2022-09-14T00:14:31.956Z,78.90
2022-09-14T00:17:01.580Z,79.06
2022-09-14T00:19:34.120Z,79.31
2022-09-14T00:22:15.338Z,79.29
2022-09-14T00:24:49.326Z,79.50
2022-09-14T00:27:17.991Z,79.76
2022-09-14T00:29:48.183Z,79.92
2022-09-14T00:32:19.489Z,79.79
2022-09-14T00:34:50.589Z,80.01
2022-09-14T00:37:21.812Z,80.03
2022-09-14T00:39:52.520Z,80.36
2022-09-14T00:42:25.141Z,80.88
2022-09-14T00:44:59.111Z,80.97
2022-09-14T00:47:30.962Z,80.94
2022-09-14T00:50:06.201Z,80.95
2022-09-14T00:52:40.340Z,81.22
2022-09-14T00:55:15.323Z,81.28
2022-09-14T00:57:48.788Z,81.34
2022-09-14T01:00:26.516Z,81.05
2022-09-14T01:02:58.919Z,81.16
2022-09-14T01:05:43.776Z,81.10
2022-09-14T01:08:26.391Z,81.10
2022-09-14T01:11:35.371Z,81.01
2022-09-14T01:14:47.883Z,80.98
2022-09-14T01:17:28.734Z,81.09
2022-09-14T01:20:28.862Z,81.24
2022-09-14T01:23:03.940Z,81.46
2022-09-14T01:26:29.466Z,81.47
2022-09-14T01:28:57.597Z,81.51
2022-09-14T01:32:00.656Z,81.56
2022-09-14T01:34:36.671Z,81.53
2022-09-14T01:37:36.562Z,81.66
2022-09-14T01:40:27.445Z,81.74
2022-09-14T01:43:42.074Z,81.47
2022-09-14T01:46:27.605Z,82.07
2022-09-14T01:49:28.498Z,81.96
2022-09-14T01:52:11.680Z,81.87
2022-09-14T01:54:52.062Z,81.84
2022-09-14T01:57:37.729Z,82.20
2022-09-14T02:00:11.653Z,82.06
2022-09-14T02:02:51.278Z,82.37
2022-09-14T02:05:31.245Z,82.43
2022-09-14T02:08:00.688Z,82.46
2022-09-14T02:10:31.610Z,82.78
2022-09-14T02:13:06.804Z,82.69
2022-09-14T02:15:37.008Z,82.76
2022-09-14T02:18:05.697Z,82.69
2022-09-14T02:20:47.918Z,82.70
2022-09-14T02:23:18.587Z,82.77
2022-09-14T02:25:47.761Z,82.86
2022-09-14T02:28:17.669Z,83.05
2022-09-14T02:30:49.740Z,82.93
2022-09-14T02:33:34.355Z,82.86
2022-09-14T02:36:16.090Z,82.88
2022-09-14T02:38:56.734Z,82.78
2022-09-14T02:41:48.543Z,82.79
2022-09-14T02:44:34.447Z,83.02
2022-09-14T02:47:10.906Z,82.86
2022-09-14T02:49:50.648Z,82.82
2022-09-14T02:52:50.157Z,82.85
2022-09-14T02:55:26.235Z,82.81
2022-09-14T02:58:11.925Z,82.83
2022-09-14T03:00:43.013Z,83.01
2022-09-14T03:03:12.301Z,82.96
2022-09-14T03:05:42.683Z,82.98
2022-09-14T03:08:12.316Z,83.03
2022-09-14T03:10:42.526Z,83.08
2022-09-14T03:13:11.277Z,83.02
2022-09-14T03:15:39.455Z,83.07
2022-09-14T03:18:12.305Z,83.15
2022-09-14T03:20:43.946Z,83.15
2022-09-14T03:23:13.209Z,83.33
2022-09-14T03:25:44.506Z,83.55
2022-09-14T03:28:14.268Z,83.76
2022-09-14T03:30:41.724Z,83.82
2022-09-14T03:33:09.210Z,83.94
2022-09-14T03:35:37.969Z,84.10
2022-09-14T03:38:04.558Z,84.40
2022-09-14T03:40:32.887Z,84.19
2022-09-14T03:43:00.633Z,84.21
2022-09-14T03:45:27.704Z,84.49
2022-09-14T03:47:55.142Z,84.38
2022-09-14T03:50:23.523Z,84.56
2022-09-14T03:52:52.203Z,84.58
2022-09-14T03:55:23.349Z,84.67
2022-09-14T03:57:53.897Z,84.62
2022-09-14T04:00:21.324Z,84.87
2022-09-14T04:02:51.510Z,85.02
2022-09-14T04:05:21.689Z,85.02
2022-09-14T04:07:49.587Z,85.09
2022-09-14T04:10:17.670Z,85.30
2022-09-14T04:12:48.713Z,85.52
2022-09-14T04:15:18.293Z,85.53
2022-09-14T04:17:52.381Z,85.50
2022-09-14T04:20:19.860Z,85.49
2022-09-14T04:22:47.974Z,85.45
2022-09-14T04:25:37.372Z,85.43
2022-09-14T04:28:19.743Z,85.69
2022-09-14T04:31:04.449Z,85.74
2022-09-14T04:33:35.071Z,85.62
2022-09-14T04:36:05.343Z,85.70
2022-09-14T04:38:35.382Z,85.91
2022-09-14T04:41:05.443Z,86.02
2022-09-14T04:43:32.155Z,86.16
2022-09-14T04:46:04.554Z,86.08
2022-09-14T04:48:36.139Z,85.94
2022-09-14T04:51:07.908Z,85.99
2022-09-14T04:53:37.292Z,85.97
2022-09-14T04:56:07.845Z,85.89
2022-09-14T04:58:39.620Z,86.08
2022-09-14T05:01:10.444Z,86.02
2022-09-14T05:03:40.127Z,85.94
2022-09-14T05:06:18.425Z,86.03
2022-09-14T05:08:46.086Z,86.01
2022-09-14T05:11:17.267Z,85.76
2022-09-14T05:13:49.998Z,85.78
2022-09-14T05:16:29.686Z,85.83
2022-09-14T05:19:19.525Z,85.74
2022-09-14T05:22:01.529Z,85.68
2022-09-14T05:24:29.417Z,85.59
2022-09-14T05:27:01.624Z,85.49
2022-09-14T05:29:32.145Z,85.48
2022-09-14T05:31:59.357Z,85.40
2022-09-14T05:34:28.316Z,85.45
2022-09-14T05:36:57.053Z,85.31
2022-09-14T05:39:25.312Z,85.54
2022-09-14T05:41:54.076Z,85.56
2022-09-14T05:44:21.287Z,85.43
2022-09-14T05:46:48.220Z,85.48
2022-09-14T05:49:15.479Z,85.46
2022-09-14T05:51:42.350Z,85.38
2022-09-14T05:54:16.808Z,85.19
2022-09-14T05:56:45.051Z,85.08
2022-09-14T05:59:14.395Z,85.06
2022-09-14T06:01:41.633Z,84.93
2022-09-14T06:04:12.479Z,84.96
2022-09-14T06:06:40.375Z,84.87
2022-09-14T06:09:08.662Z,84.73
2022-09-14T06:11:38.975Z,84.52
2022-09-14T06:14:06.561Z,84.62
2022-09-14T06:16:35.178Z,84.41
2022-09-14T06:19:01.935Z,84.46
2022-09-14T06:21:32.730Z,84.35
2022-09-14T06:24:01.718Z,84.20
2022-09-14T06:26:30.278Z,84.04
2022-09-14T06:28:57.073Z,83.97
2022-09-14T06:31:25.752Z,83.83
2022-09-14T06:33:53.841Z,83.72
2022-09-14T06:36:26.082Z,83.68
2022-09-14T06:38:54.620Z,83.58
2022-09-14T06:41:28.495Z,83.39
2022-09-14T06:43:58.214Z,83.03
2022-09-14T06:46:29.347Z,82.94
2022-09-14T06:49:02.661Z,82.49
2022-09-14T06:51:38.422Z,82.13
2022-09-14T06:54:06.186Z,81.76
2022-09-14T06:56:36.263Z,81.66
2022-09-14T06:59:04.528Z,81.51
2022-09-14T07:01:33.404Z,81.31
2022-09-14T07:04:02.386Z,81.37
2022-09-14T07:06:30.872Z,81.40
2022-09-14T07:08:57.944Z,81.18
2022-09-14T07:11:27.181Z,81.09
2022-09-14T07:13:56.722Z,81.04
2022-09-14T07:16:24.075Z,80.69
2022-09-14T07:18:54.822Z,80.88
2022-09-14T07:21:23.867Z,80.33
2022-09-14T07:23:52.687Z,79.92
2022-09-14T07:26:38.915Z,79.34
2022-09-14T07:29:14.783Z,79.07
2022-09-14T07:31:45.726Z,78.61
2022-09-14T07:34:13.026Z,78.56
2022-09-14T07:36:40.989Z,78.76
2022-09-14T07:39:11.018Z,78.85
2022-09-14T07:41:37.677Z,78.72
2022-09-14T07:44:06.788Z,78.51
2022-09-14T07:46:38.422Z,78.16
2022-09-14T07:49:06.337Z,77.74
2022-09-14T07:51:34.501Z,77.41
2022-09-14T07:54:01.669Z,76.88
2022-09-14T07:56:29.163Z,76.67
2022-09-14T07:59:11.505Z,76.77
2022-09-14T08:01:38.688Z,76.79
2022-09-14T08:04:07.312Z,76.30
2022-09-14T08:06:34.064Z,75.96
2022-09-14T08:09:09.351Z,75.74
2022-09-14T08:11:36.273Z,75.23
2022-09-14T08:14:12.115Z,74.71
2022-09-14T08:16:39.695Z,75.10
2022-09-14T08:19:14.295Z,74.78
2022-09-14T08:21:51.427Z,74.49
2022-09-14T08:24:51.563Z,74.01
2022-09-14T08:27:31.486Z,73.31
2022-09-14T08:30:49.680Z,72.98
2022-09-14T08:37:50.090Z,72.46
2022-09-14T08:40:20.392Z,72.45
2022-09-14T08:43:20.538Z,71.64
2022-09-14T08:47:33.398Z,71.63
2022-09-14T08:55:14.945Z,71.34
2022-09-14T08:57:52.778Z,71.17
2022-09-14T09:00:38.124Z,70.56
2022-09-14T09:03:39.604Z,70.40
2022-09-14T09:06:16.155Z,70.61
2022-09-14T09:09:02.353Z,70.62
2022-09-14T09:11:39.070Z,70.35
2022-09-14T09:14:18.533Z,70.21
2022-09-14T09:16:48.872Z,69.91
2022-09-14T09:19:28.457Z,69.56
2022-09-14T09:21:56.642Z,69.36
2022-09-14T09:24:39.120Z,69.06
2022-09-14T09:27:14.705Z,68.69
2022-09-14T09:29:42.925Z,68.05
2022-09-14T09:32:16.419Z,67.80
2022-09-14T09:35:06.481Z,67.70
2022-09-14T09:37:52.156Z,67.06
2022-09-14T09:40:29.550Z,66.49
2022-09-14T09:43:08.636Z,65.93
2022-09-14T09:45:58.818Z,65.42
2022-09-14T09:48:38.221Z,65.17
2022-09-14T09:51:10.673Z,64.74
2022-09-14T09:53:47.312Z,64.70
2022-09-14T09:56:26.698Z,64.55
2022-09-14T09:58:54.359Z,63.94
2022-09-14T10:01:28.512Z,63.95
2022-09-14T10:04:18.341Z,63.83
2022-09-14T10:06:51.475Z,62.81
2022-09-14T10:09:20.725Z,62.53
2022-09-14T10:11:56.767Z,62.81
2022-09-14T10:14:30.815Z,62.81
2022-09-14T10:17:07.329Z,62.88
2022-09-14T10:19:34.257Z,62.63
2022-09-14T10:22:16.662Z,62.63
2022-09-14T10:24:54.551Z,62.45
2022-09-14T10:27:53.538Z,62.24
2022-09-14T10:30:32.343Z,62.03
2022-09-14T10:33:01.980Z,62.14
2022-09-14T10:35:56.250Z,62.15
2022-09-14T10:38:34.439Z,62.07
2022-09-14T10:41:22.462Z,61.83
2022-09-14T10:44:04.888Z,61.93
2022-09-14T10:46:54.991Z,61.99
2022-09-14T10:49:42.511Z,61.72
2022-09-14T10:52:29.608Z,61.80
2022-09-14T10:55:23.074Z,61.75
2022-09-14T10:57:58.242Z,61.95
2022-09-14T11:00:30.388Z,61.80
2022-09-14T11:03:27.170Z,61.65
2022-09-14T11:06:15.513Z,60.96
2022-09-14T11:08:45.883Z,60.59
2022-09-14T11:11:24.217Z,60.37
2022-09-14T11:14:10.893Z,60.34
2022-09-14T11:16:55.821Z,60.18
2022-09-14T11:19:29.211Z,60.06
2022-09-14T11:22:08.102Z,60.31
2022-09-14T11:24:39.037Z,60.30
2022-09-14T11:27:11.235Z,60.13
2022-09-14T11:29:46.308Z,60.12
2022-09-14T11:32:22.331Z,60.36
2022-09-14T11:35:12.164Z,60.16
2022-09-14T11:37:46.541Z,59.94
2022-09-14T11:40:23.566Z,60.04
2022-09-14T11:43:10.085Z,59.87
2022-09-14T11:45:52.119Z,59.95
2022-09-14T11:48:58.045Z,60.42
2022-09-14T11:51:32.492Z,60.21
2022-09-14T11:53:59.055Z,60.20
2022-09-14T11:56:31.562Z,60.08
2022-09-14T11:59:01.508Z,59.90
2022-09-14T12:01:36.968Z,60.04
2022-09-14T12:04:07.883Z,60.17
2022-09-14T12:06:37.535Z,60.37
2022-09-14T12:09:14.777Z,60.35
2022-09-14T12:11:45.019Z,60.10
2022-09-14T12:14:23.756Z,60.02
2022-09-14T12:17:17.289Z,59.68
2022-09-14T12:19:52.148Z,59.36
2022-09-14T12:22:33.877Z,59.29
2022-09-14T12:25:22.565Z,58.88
2022-09-14T12:27:49.730Z,59.33
2022-09-14T12:30:41.312Z,59.05
2022-09-14T12:33:33.680Z,59.20
2022-09-14T12:36:10.810Z,58.66
2022-09-14T12:38:40.770Z,58.85
2022-09-14T12:41:10.612Z,58.12
2022-09-14T12:43:37.360Z,57.99
2022-09-14T12:46:19.185Z,58.31
2022-09-14T12:48:48.394Z,58.38
2022-09-14T12:51:25.025Z,58.11
2022-09-14T12:54:34.893Z,57.66
2022-09-14T12:57:06.948Z,57.60
2022-09-14T13:00:11.752Z,57.26
2022-09-14T13:02:56.921Z,57.51
2022-09-14T13:05:28.406Z,57.72
2022-09-14T13:07:55.899Z,57.50
2022-09-14T13:10:35.269Z,57.51
2022-09-14T13:13:14.997Z,57.35
2022-09-14T13:16:03.046Z,57.24
2022-09-14T13:18:35.394Z,57.42
2022-09-14T13:21:21.908Z,57.75
2022-09-14T13:23:48.818Z,58.05
2022-09-14T13:26:17.509Z,58.00
2022-09-14T13:28:46.334Z,58.00
2022-09-14T13:31:18.299Z,57.88
2022-09-14T13:33:51.078Z,58.32
2022-09-14T13:36:22.438Z,58.37
2022-09-14T13:38:50.193Z,58.47
2022-09-14T13:41:18.760Z,58.72
2022-09-14T13:43:49.060Z,59.13
2022-09-14T13:46:20.115Z,59.25
2022-09-14T13:48:47.343Z,59.47
2022-09-14T13:51:14.533Z,59.75
2022-09-14T13:53:49.912Z,59.90
2022-09-14T13:56:19.447Z,59.93
2022-09-14T13:58:48.707Z,60.07
2022-09-14T14:01:27.444Z,60.20
2022-09-14T14:03:55.205Z,60.24
2022-09-14T14:06:28.809Z,60.16
2022-09-14T14:09:09.744Z,60.27
2022-09-14T14:11:45.202Z,59.68
2022-09-14T14:14:32.113Z,59.93
2022-09-14T14:17:23.345Z,60.05
2022-09-14T14:19:55.139Z,59.86
2022-09-14T14:22:28.526Z,59.76
2022-09-14T14:25:12.871Z,59.34
2022-09-14T14:27:44.140Z,59.66
2022-09-14T14:30:15.804Z,59.32
2022-09-14T14:32:49.127Z,59.71
2022-09-14T14:35:19.404Z,59.90
2022-09-14T14:37:47.219Z,60.22
2022-09-14T14:40:16.077Z,60.46
2022-09-14T14:42:44.338Z,60.56
2022-09-14T14:45:18.465Z,60.68
2022-09-14T14:47:50.055Z,60.85
2022-09-14T14:50:22.365Z,60.97
2022-09-14T14:52:51.147Z,61.05
2022-09-14T14:55:19.208Z,61.38
2022-09-14T14:57:45.794Z,61.58
2022-09-14T15:00:17.242Z,61.89
2022-09-14T15:02:44.241Z,62.26
2022-09-14T15:05:12.044Z,62.65
2022-09-14T15:07:58.231Z,62.81
2022-09-14T15:10:29.839Z,63.01
2022-09-14T15:12:59.597Z,63.25
2022-09-14T15:15:26.355Z,63.45
2022-09-14T15:17:53.608Z,63.69
2022-09-14T15:20:22.837Z,63.96
2022-09-14T15:22:51.042Z,64.04
2022-09-14T15:25:19.436Z,64.01
2022-09-14T15:27:47.264Z,64.16
2022-09-14T15:30:16.141Z,64.14
2022-09-14T15:32:43.407Z,64.17
2022-09-14T15:35:13.582Z,64.23
2022-09-14T15:37:41.307Z,64.48
2022-09-14T15:40:09.266Z,64.68
2022-09-14T15:42:36.012Z,64.91
2022-09-14T15:45:05.319Z,65.12
2022-09-14T15:47:35.610Z,65.51
2022-09-14T15:50:05.355Z,65.77
2022-09-14T15:52:34.419Z,65.97
2022-09-14T15:55:00.957Z,66.19
2022-09-14T15:57:27.314Z,66.40
2022-09-14T15:59:54.317Z,66.95
2022-09-14T16:02:21.390Z,67.19
2022-09-14T16:04:48.047Z,67.52
2022-09-14T16:07:14.820Z,67.76
2022-09-14T16:09:41.614Z,68.33
2022-09-14T16:12:10.122Z,68.92
2022-09-14T16:14:36.465Z,69.33
2022-09-14T16:17:04.456Z,69.65
2022-09-14T16:19:31.282Z,70.28
2022-09-14T16:21:57.830Z,70.77
2022-09-14T16:24:25.150Z,71.29
2022-09-14T16:26:51.971Z,71.99
2022-09-14T16:29:20.217Z,72.60
2022-09-14T16:31:47.868Z,73.29
2022-09-14T16:34:21.235Z,73.89
2022-09-14T16:36:48.561Z,74.52
2022-09-14T16:39:18.870Z,75.00
2022-09-14T16:41:46.023Z,75.21
2022-09-14T16:44:20.208Z,75.88
2022-09-14T16:46:48.579Z,76.31
2022-09-14T16:49:16.278Z,76.69
2022-09-14T16:51:43.071Z,76.90
2022-09-14T16:54:14.286Z,77.34
2022-09-14T16:56:41.211Z,77.48
2022-09-14T16:59:07.840Z,77.77
2022-09-14T17:01:37.565Z,77.97
2022-09-14T17:04:08.895Z,78.31
2022-09-14T17:06:37.786Z,78.52
2022-09-14T17:09:07.591Z,78.72
2022-09-14T17:11:36.017Z,79.07
2022-09-14T17:14:03.279Z,79.22
2022-09-14T17:16:30.064Z,79.32
2022-09-14T17:19:00.133Z,79.57
2022-09-14T17:21:29.927Z,79.71
2022-09-14T17:23:57.719Z,79.98
2022-09-14T17:26:25.306Z,79.85
2022-09-14T17:28:55.562Z,80.05
2022-09-14T17:31:30.704Z,80.39
2022-09-14T17:34:00.296Z,80.59
2022-09-14T17:36:27.825Z,80.78
2022-09-14T17:38:59.142Z,80.97
2022-09-14T17:41:27.558Z,81.10
2022-09-14T17:43:57.151Z,81.29
2022-09-14T17:46:24.674Z,81.43
2022-09-14T17:48:51.505Z,81.62
2022-09-14T17:51:21.338Z,81.75
2022-09-14T17:53:51.390Z,81.74
2022-09-14T17:56:20.195Z,81.90
2022-09-14T17:58:48.319Z,81.94
2022-09-14T18:01:24.100Z,82.11
2022-09-14T18:03:53.703Z,82.39
2022-09-14T18:06:23.691Z,82.27
2022-09-14T18:08:55.578Z,82.31
2022-09-14T18:11:24.693Z,82.45
2022-09-14T18:13:51.245Z,82.63
2022-09-14T18:16:20.963Z,82.95
2022-09-14T18:18:47.692Z,82.98
2022-09-14T18:21:16.423Z,83.05
2022-09-14T18:23:43.327Z,83.16
2022-09-14T18:26:10.302Z,83.29
2022-09-14T18:28:36.657Z,83.43
2022-09-14T18:31:09.788Z,83.57
2022-09-14T18:33:36.811Z,83.68
2022-09-14T18:36:05.461Z,83.85
2022-09-14T18:38:33.052Z,83.91
2022-09-14T18:41:08.184Z,84.02
2022-09-14T18:43:35.553Z,84.11
2022-09-14T18:46:05.998Z,84.19
2022-09-14T18:48:33.980Z,84.27
2022-09-14T18:51:04.343Z,84.26
2022-09-14T18:53:31.391Z,84.36
2022-09-14T18:56:07.764Z,84.43
2022-09-14T18:58:36.357Z,84.76
2022-09-14T19:01:03.733Z,84.67
2022-09-14T19:03:31.895Z,84.69
2022-09-14T19:06:09.578Z,84.88
2022-09-14T19:08:36.789Z,85.03
2022-09-14T19:11:26.618Z,85.00
2022-09-14T19:14:01.129Z,85.14
2022-09-14T19:16:29.276Z,85.36
2022-09-14T19:18:55.872Z,85.27
2022-09-14T19:21:25.375Z,85.26
2022-09-14T19:24:07.033Z,85.26
2022-09-14T19:26:45.086Z,85.37
2022-09-14T19:29:14.602Z,85.62
2022-09-14T19:31:41.386Z,85.68
2022-09-14T19:34:11.011Z,85.83
2022-09-14T19:36:38.048Z,85.94
2022-09-14T19:39:05.295Z,86.00
2022-09-14T19:41:33.385Z,86.19
2022-09-14T19:44:04.234Z,86.24
2022-09-14T19:46:31.539Z,86.47
2022-09-14T19:48:59.341Z,86.41
2022-09-14T19:51:27.937Z,86.48
2022-09-14T19:53:56.892Z,86.60
2022-09-14T19:56:26.743Z,86.84
2022-09-14T19:58:56.820Z,86.91
2022-09-14T20:01:25.650Z,86.99
2022-09-14T20:03:53.210Z,87.09
2022-09-14T20:06:26.054Z,87.04
2022-09-14T20:08:55.370Z,87.29
2022-09-14T20:11:23.565Z,87.41
2022-09-14T20:13:54.141Z,87.68
2022-09-14T20:16:29.912Z,87.79
2022-09-14T20:18:59.547Z,87.79
2022-09-14T20:21:27.335Z,87.77
2022-09-14T20:24:15.539Z,87.90
2022-09-14T20:26:44.945Z,88.11
2022-09-14T20:29:11.776Z,88.19
2022-09-14T20:31:38.339Z,88.37
2022-09-14T20:34:05.003Z,88.52
2022-09-14T20:36:31.971Z,88.61
2022-09-14T20:38:59.128Z,88.67
2022-09-14T20:41:29.109Z,88.66
2022-09-14T20:43:55.840Z,88.78
2022-09-14T20:46:37.779Z,88.80
2022-09-14T20:49:05.842Z,88.96
2022-09-14T20:51:35.337Z,89.23
2022-09-14T20:54:02.039Z,89.29
2022-09-14T20:56:32.145Z,89.30
2022-09-14T20:59:00.766Z,89.60
2022-09-14T21:01:32.749Z,89.73
2022-09-14T21:04:06.069Z,89.79
2022-09-14T21:06:36.183Z,89.86
2022-09-14T21:09:04.795Z,89.83
2022-09-14T21:11:32.401Z,89.86
2022-09-14T21:14:00.344Z,89.87
2022-09-14T21:16:33.303Z,89.98
2022-09-14T21:19:06.611Z,90.06
2022-09-14T21:21:33.944Z,90.07
2022-09-14T21:24:01.201Z,90.14
2022-09-14T21:26:29.458Z,90.24
2022-09-14T21:28:58.782Z,90.28
2022-09-14T21:31:27.987Z,90.25
2022-09-14T21:33:58.294Z,90.36
2022-09-14T21:36:35.286Z,90.67
2022-09-14T21:39:09.244Z,90.88
2022-09-14T21:41:37.708Z,90.93
2022-09-14T21:44:04.791Z,90.86
2022-09-14T21:46:33.161Z,91.01
2022-09-14T21:48:59.818Z,91.03
2022-09-14T21:51:29.527Z,90.95
2022-09-14T21:53:58.353Z,91.08
2022-09-14T21:56:27.286Z,91.54
2022-09-14T21:58:56.991Z,91.13
2022-09-14T22:01:23.677Z,91.18
2022-09-14T22:03:52.187Z,91.33
2022-09-14T22:06:20.854Z,91.09
2022-09-14T22:08:48.571Z,91.02
2022-09-14T22:11:21.172Z,91.27
2022-09-14T22:13:57.881Z,91.68
2022-09-14T22:16:26.183Z,91.40
2022-09-14T22:18:55.814Z,91.45
2022-09-14T22:21:24.317Z,91.56
2022-09-14T22:23:56.388Z,91.47
2022-09-14T22:26:24.656Z,91.69
2022-09-14T22:28:53.198Z,91.88
2022-09-14T22:31:24.606Z,91.99
2022-09-14T22:33:54.877Z,91.92
2022-09-14T22:36:22.675Z,91.93
2022-09-14T22:38:49.533Z,91.78
2022-09-14T22:41:18.995Z,92.08
2022-09-14T22:43:46.066Z,92.29
2022-09-14T22:46:14.052Z,92.35
2022-09-14T22:48:41.031Z,92.25
2022-09-14T22:51:10.444Z,92.58
2022-09-14T22:53:37.406Z,92.77
2022-09-14T22:56:19.652Z,92.80
2022-09-14T22:58:47.423Z,93.15
2022-09-14T23:01:27.565Z,93.24
2022-09-14T23:04:01.467Z,93.48
2022-09-14T23:06:31.585Z,93.43
2022-09-14T23:08:59.773Z,93.58
2022-09-14T23:11:26.455Z,93.44
2022-09-14T23:13:54.057Z,93.72
2022-09-14T23:16:25.378Z,93.34
2022-09-14T23:18:53.935Z,93.53
2022-09-14T23:21:21.012Z,93.72
2022-09-14T23:23:55.782Z,93.55
2022-09-14T23:26:23.367Z,93.35
2022-09-14T23:29:00.968Z,93.49
2022-09-14T23:31:29.532Z,93.89
2022-09-14T23:33:58.125Z,94.09
2022-09-14T23:36:25.757Z,94.19
2022-09-14T23:38:52.930Z,94.20
2022-09-14T23:41:22.307Z,94.34
2022-09-14T23:43:49.536Z,94.56
2022-09-14T23:46:17.423Z,94.63
2022-09-14T23:48:45.219Z,94.31
2022-09-14T23:51:12.843Z,94.60
2022-09-14T23:53:40.085Z,94.39
2022-09-14T23:56:07.456Z,94.81
2022-09-14T23:58:34.435Z,94.69
